Rotterdam, Netherlands

12:36 PM CET on February 11, 2016 (GMT +0100)
Rotterdam | | Change Station
CLOSE
Current Station
Airport
Location: Rotterdam,
Elevation: -16 ft
Nearby Weather Stations

Elev -16 ft 51.95 °N, 4.44 °E | Updated 11 minutes ago

Mostly Cloudy
Mostly Cloudy
45 °F
Feels Like 39 °F
N
10
Wind Variable Wind from West

Today
High -- | Low -- °F
--% Chance of Precip.
Yesterday
High -- | Low -- °F
Precip. -- in
Pressure 29.65 in
Visibility 6.2 miles
Clouds Mostly Cloudy 2200 ft
Mostly Cloudy 2700 ft
Windchill 39 °F
Dew Point 37 °F
Humidity 76%
Rainfall 0.00 in
Snow Depth Not available.
8:05 AM 5:47 PM
Waxing Crescent, 11% visible
METAR EHRD 111125Z AUTO 27009KT 230V310 9999 BKN022 BKN027 07/03 Q1004 NOSIG
Pressure 29.65 in
Visibility 6.2 miles
Clouds Mostly Cloudy 2200 ft
Mostly Cloudy 2700 ft
Windchill 39 °F
Dew Point 37 °F
Humidity 76%
Rainfall 0.00 in
Snow Depth Not available.
8:05 AM 5:47 PM
Waxing Crescent, 11% visible
METAR EHRD 111125Z AUTO 27009KT 230V310 9999 BKN022 BKN027 07/03 Q1004 NOSIG

10-Day Weather Forecast

Almanac

Astronomy

Feb. 11, 2016 Rise Set
Actual Time
Civil Twilight
Nautical Twilight
Astronomical Twilight
Moon
Length of Visible Light
Length of Day
Tomorrow will be .
, % of the Moon is Illuminated

Today's Extremes

Country Highs Country Lows

Community

WunderPhotos

Upload Photos

1,892,030 photos uploaded!

WunderBlog® & News

Nearby

Air Quality

  Air Quality AQ Index Pollutant
Not available.

Snow Depth

Station Depth Elevation

Earthquake Activity

City Distance Mag. Time & Date
Minimum magnitude displayed is 2.5.

Coastal Water Temperatures

Place Temperature

Stations

Nearby Weather Stations

Station Location Temp. Windchill Dew Point Humidity Wind Precip. Elev Updated Type